createdAt,value
2023-04-08T00:00:54.030Z,99717.94
2023-04-08T00:03:21.893Z,99719.16
2023-04-08T00:05:49.535Z,99728.91
2023-04-08T00:08:16.976Z,99726.44
2023-04-08T00:10:44.642Z,99714.88
2023-04-08T00:13:12.160Z,99726.41
2023-04-08T00:15:39.596Z,99721.19
2023-04-08T00:18:07.556Z,99720.03
2023-04-08T00:20:35.361Z,99721.53
2023-04-08T00:23:02.884Z,99726.50
2023-04-08T00:25:31.375Z,99732.44
2023-04-08T00:27:58.778Z,99728.91
2023-04-08T00:30:28.093Z,99733.06
2023-04-08T00:32:55.926Z,99734.44
2023-04-08T00:35:23.578Z,99726.25
2023-04-08T00:37:51.180Z,99717.03
2023-04-08T00:40:18.927Z,99722.72
2023-04-08T00:42:46.589Z,99726.31
2023-04-08T00:45:14.290Z,99725.66
2023-04-08T00:47:42.055Z,99729.59
2023-04-08T00:50:10.850Z,99729.53
2023-04-08T00:52:38.376Z,99734.03
2023-04-08T00:55:06.605Z,99729.75
2023-04-08T00:57:34.410Z,99726.53
2023-04-08T01:00:01.939Z,99735.09
2023-04-08T01:02:46.130Z,99731.44
2023-04-08T01:05:21.163Z,99729.63
2023-04-08T01:07:50.256Z,99724.28
2023-04-08T01:10:21.535Z,99726.31
2023-04-08T01:12:56.956Z,99733.81
2023-04-08T01:15:26.464Z,99734.00
2023-04-08T01:17:56.330Z,99726.94
2023-04-08T01:20:25.340Z,99728.81
2023-04-08T01:23:07.354Z,99728.78
2023-04-08T01:25:36.889Z,99729.69
2023-04-08T01:28:07.637Z,99732.91
2023-04-08T01:30:35.915Z,99731.59
2023-04-08T01:33:04.309Z,99723.41
2023-04-08T01:35:32.307Z,99727.25
2023-04-08T01:38:00.606Z,99731.66
2023-04-08T01:40:28.018Z,99732.19
2023-04-08T01:42:59.251Z,99725.75
2023-04-08T01:45:28.296Z,99727.75
2023-04-08T01:47:57.212Z,99726.84
2023-04-08T01:50:25.813Z,99729.88
2023-04-08T01:52:55.302Z,99725.38
2023-04-08T01:55:23.105Z,99727.94
2023-04-08T01:57:52.285Z,99727.63
2023-04-08T02:00:23.035Z,99723.75
2023-04-08T02:02:52.149Z,99721.81
2023-04-08T02:05:20.012Z,99720.47
2023-04-08T02:07:48.531Z,99724.38
2023-04-08T02:10:16.362Z,99727.78
2023-04-08T02:12:44.440Z,99723.88
2023-04-08T02:15:13.290Z,99722.44
2023-04-08T02:17:51.693Z,99723.19
2023-04-08T02:20:51.442Z,99733.34
2023-04-08T02:23:24.686Z,99726.31
2023-04-08T02:25:53.410Z,99720.47
2023-04-08T02:28:21.239Z,99716.41
2023-04-08T02:30:50.595Z,99716.53
2023-04-08T02:33:20.433Z,99730.03
2023-04-08T02:35:50.093Z,99730.94
2023-04-08T02:38:17.929Z,99717.88
2023-04-08T02:40:45.702Z,99721.81
2023-04-08T02:43:13.121Z,99727.13
2023-04-08T02:45:44.547Z,99715.12
2023-04-08T02:48:12.125Z,99715.50
2023-04-08T02:50:40.679Z,99714.13
2023-04-08T02:53:09.342Z,99718.66
2023-04-08T02:55:37.071Z,99719.59
2023-04-08T02:58:04.464Z,99726.16
2023-04-08T03:00:32.144Z,99730.69
2023-04-08T03:02:59.922Z,99731.88
2023-04-08T03:05:27.557Z,99725.34
2023-04-08T03:07:55.420Z,99728.34
2023-04-08T03:10:22.856Z,99725.56
2023-04-08T03:12:50.375Z,99723.84
2023-04-08T03:15:18.268Z,99726.06
2023-04-08T03:17:45.913Z,99735.16
2023-04-08T03:20:13.483Z,99726.66
2023-04-08T03:22:41.197Z,99724.72
2023-04-08T03:25:09.085Z,99728.47
2023-04-08T03:27:36.552Z,99732.94
2023-04-08T03:30:04.625Z,99729.84
2023-04-08T03:32:33.074Z,99738.75
2023-04-08T03:35:00.538Z,99737.75
2023-04-08T03:37:28.193Z,99742.69
2023-04-08T03:39:56.166Z,99736.06
2023-04-08T03:42:23.582Z,99742.56
2023-04-08T03:44:51.390Z,99736.78
2023-04-08T03:47:18.782Z,99742.66
2023-04-08T03:49:46.161Z,99742.75
2023-04-08T03:52:13.832Z,99745.56
2023-04-08T03:54:41.276Z,99752.56
2023-04-08T03:57:08.680Z,99749.78
2023-04-08T03:59:36.799Z,99752.75
2023-04-08T04:02:04.269Z,99760.53
2023-04-08T04:04:32.077Z,99753.88
2023-04-08T04:06:59.518Z,99764.25
2023-04-08T04:09:27.080Z,99760.75
2023-04-08T04:11:54.753Z,99767.53
2023-04-08T04:14:22.116Z,99765.41
2023-04-08T04:16:49.514Z,99766.38
2023-04-08T04:19:18.424Z,99776.38
2023-04-08T04:21:45.816Z,99767.50
2023-04-08T04:24:14.167Z,99779.41
2023-04-08T04:26:42.106Z,99770.38
2023-04-08T04:29:09.505Z,99772.59
2023-04-08T04:31:37.326Z,99780.78
2023-04-08T04:34:05.012Z,99776.12
2023-04-08T04:36:32.420Z,99780.59
2023-04-08T04:38:59.825Z,99773.69
2023-04-08T04:41:27.749Z,99781.19
2023-04-08T04:43:55.327Z,99780.50
2023-04-08T04:46:22.884Z,99788.13
2023-04-08T04:48:51.498Z,99777.50
2023-04-08T04:51:19.052Z,99782.75
2023-04-08T04:53:46.447Z,99790.47
2023-04-08T04:56:14.098Z,99785.44
2023-04-08T04:58:42.072Z,99786.38
2023-04-08T05:01:09.517Z,99790.88
2023-04-08T05:03:37.251Z,99786.31
2023-04-08T05:06:04.767Z,99777.25
2023-04-08T05:08:32.157Z,99780.97
2023-04-08T05:11:02.174Z,99785.31
2023-04-08T05:13:29.835Z,99787.09
2023-04-08T05:15:57.253Z,99786.69
2023-04-08T05:18:25.252Z,99792.00
2023-04-08T05:20:52.800Z,99784.50
2023-04-08T05:23:20.338Z,99792.63
2023-04-08T05:25:47.995Z,99794.03
2023-04-08T05:28:15.580Z,99796.28
2023-04-08T05:30:43.018Z,99797.38
2023-04-08T05:33:11.058Z,99807.41
2023-04-08T05:35:38.596Z,99809.13
2023-04-08T05:38:06.758Z,99811.00
2023-04-08T05:40:34.508Z,99811.53
2023-04-08T05:43:01.901Z,99819.75
2023-04-08T05:45:30.617Z,99811.69
2023-04-08T05:47:58.333Z,99815.81
2023-04-08T05:50:25.800Z,99825.84
2023-04-08T05:52:53.200Z,99822.75
2023-04-08T05:55:20.989Z,99820.94
2023-04-08T05:57:48.403Z,99824.13
2023-04-08T06:00:16.965Z,99823.97
2023-04-08T06:02:44.816Z,99823.94
2023-04-08T06:05:12.353Z,99821.19
2023-04-08T06:07:39.826Z,99824.88
2023-04-08T06:10:08.371Z,99829.53
2023-04-08T06:12:37.345Z,99824.53
2023-04-08T06:15:06.090Z,99825.63
2023-04-08T06:17:36.454Z,99828.19
2023-04-08T06:20:05.379Z,99823.09
2023-04-08T06:22:33.046Z,99826.78
2023-04-08T06:25:00.873Z,99843.47
2023-04-08T06:27:28.494Z,99841.81
2023-04-08T06:29:56.093Z,99839.00
2023-04-08T06:32:23.913Z,99845.16
2023-04-08T06:34:51.541Z,99844.50
2023-04-08T06:37:18.908Z,99842.53
2023-04-08T06:39:46.626Z,99848.69
2023-04-08T06:42:14.037Z,99847.81
2023-04-08T06:44:43.914Z,99842.88
2023-04-08T06:47:11.586Z,99854.94
2023-04-08T06:49:38.980Z,99852.44
2023-04-08T06:52:06.995Z,99859.91
2023-04-08T06:54:34.765Z,99854.94
2023-04-08T06:57:02.171Z,99857.63
2023-04-08T06:59:30.484Z,99865.47
2023-04-08T07:01:58.326Z,99857.59
2023-04-08T07:04:26.053Z,99864.37
2023-04-08T07:06:53.529Z,99864.31
2023-04-08T07:09:21.220Z,99863.72
2023-04-08T07:11:48.628Z,99863.22
2023-04-08T07:14:16.051Z,99868.91
2023-04-08T07:16:43.794Z,99871.59
2023-04-08T07:19:11.850Z,99874.56
2023-04-08T07:21:39.208Z,99878.69
2023-04-08T07:24:07.292Z,99887.69
2023-04-08T07:26:34.762Z,99884.31
2023-04-08T07:29:02.196Z,99879.25
2023-04-08T07:31:29.910Z,99882.66
2023-04-08T07:33:57.346Z,99882.75
2023-04-08T07:36:25.152Z,99894.19
2023-04-08T07:38:52.862Z,99892.28
2023-04-08T07:41:21.164Z,99895.25
2023-04-08T07:43:48.560Z,99896.38
2023-04-08T07:46:16.331Z,99897.13
2023-04-08T07:48:43.789Z,99896.47
2023-04-08T07:51:11.716Z,99903.25
2023-04-08T07:53:40.496Z,99901.97
2023-04-08T07:56:15.457Z,99911.34
2023-04-08T07:58:43.326Z,99906.66
2023-04-08T08:01:18.989Z,99916.44
2023-04-08T08:03:48.013Z,99916.56
2023-04-08T08:06:15.811Z,99911.81
2023-04-08T08:08:43.389Z,99915.16
2023-04-08T08:11:11.119Z,99914.19
2023-04-08T08:13:38.655Z,99914.00
2023-04-08T08:16:09.148Z,99916.19
2023-04-08T08:18:40.851Z,99909.22
2023-04-08T08:21:08.920Z,99916.28
2023-04-08T08:23:37.840Z,99920.75
2023-04-08T08:26:12.227Z,99928.19
2023-04-08T08:28:40.388Z,99925.53
2023-04-08T08:31:07.914Z,99927.28
2023-04-08T08:33:35.761Z,99931.56
2023-04-08T08:36:05.623Z,99930.38
2023-04-08T08:38:33.574Z,99934.78
2023-04-08T08:41:01.658Z,99936.00
2023-04-08T08:43:29.355Z,99937.25
2023-04-08T08:45:56.839Z,99943.19
2023-04-08T08:48:24.403Z,99940.06
2023-04-08T08:50:52.079Z,99947.94
2023-04-08T08:53:20.685Z,99951.16
2023-04-08T08:58:19.523Z,99948.25
2023-04-08T09:00:47.024Z,99947.06
2023-04-08T09:03:23.553Z,99949.63
2023-04-08T09:05:56.191Z,99951.91
2023-04-08T09:08:25.602Z,99955.50
2023-04-08T09:10:54.470Z,99954.66
2023-04-08T09:13:25.005Z,99965.03
2023-04-08T09:16:05.170Z,99956.19
2023-04-08T09:18:33.666Z,99960.63
2023-04-08T09:21:02.379Z,99962.28
2023-04-08T09:23:47.742Z,99958.13
2023-04-08T09:26:22.218Z,99969.69
2023-04-08T09:29:10.993Z,99971.56
2023-04-08T09:31:42.511Z,99967.59
2023-04-08T09:34:12.008Z,99978.37
2023-04-08T09:36:39.431Z,99975.34
2023-04-08T09:39:07.716Z,99982.81
2023-04-08T09:41:36.204Z,99977.66
2023-04-08T09:44:06.603Z,99975.94
2023-04-08T09:46:43.725Z,99979.47
2023-04-08T09:49:13.416Z,99985.75
2023-04-08T09:51:45.599Z,99984.44
2023-04-08T09:54:14.953Z,99982.91
2023-04-08T09:57:03.609Z,99982.62
2023-04-08T09:59:33.999Z,99994.66
2023-04-08T10:02:07.552Z,99988.47
2023-04-08T10:04:39.622Z,99985.59
2023-04-08T10:07:07.583Z,99987.25
2023-04-08T10:09:35.697Z,99989.38
2023-04-08T10:12:04.429Z,99992.69
2023-04-08T10:14:32.620Z,99995.00
2023-04-08T10:17:26.622Z,99991.31
2023-04-08T10:19:54.194Z,99991.72
2023-04-08T10:22:33.849Z,99991.81
2023-04-08T10:25:32.910Z,99999.28
2023-04-08T10:28:01.984Z,99999.06
2023-04-08T10:30:29.253Z,99997.78
2023-04-08T10:32:57.607Z,99998.47
2023-04-08T10:35:32.009Z,99993.13
2023-04-08T10:37:59.842Z,100000.19
2023-04-08T10:40:27.931Z,99992.19
2023-04-08T10:42:56.391Z,99993.84
2023-04-08T10:45:24.116Z,99993.13
2023-04-08T10:47:52.035Z,100001.91
2023-04-08T10:50:20.506Z,99997.19
2023-04-08T10:52:53.658Z,99996.75
2023-04-08T10:55:25.553Z,99987.91
2023-04-08T10:57:54.176Z,99996.38
2023-04-08T11:00:36.960Z,99997.84
2023-04-08T11:03:06.709Z,99996.56
2023-04-08T11:05:36.817Z,99991.63
2023-04-08T11:08:05.156Z,99995.91
2023-04-08T11:10:38.558Z,100000.09
2023-04-08T11:13:12.944Z,99994.16
2023-04-08T11:15:40.736Z,99999.53
2023-04-08T11:18:09.160Z,99997.00
2023-04-08T11:20:37.232Z,99994.19
2023-04-08T11:23:04.638Z,100000.22
2023-04-08T11:25:32.427Z,100005.91
2023-04-08T11:28:00.453Z,100001.34
2023-04-08T11:30:28.967Z,100002.91
2023-04-08T11:32:57.021Z,100000.44
2023-04-08T11:35:24.657Z,100004.31
2023-04-08T11:37:52.690Z,100002.81
2023-04-08T11:40:22.261Z,100010.03
2023-04-08T11:42:53.035Z,100010.06
2023-04-08T11:45:21.586Z,100013.81
2023-04-08T11:47:49.214Z,100005.19
2023-04-08T11:50:26.923Z,100010.81
2023-04-08T11:52:55.486Z,100011.66
2023-04-08T11:55:30.746Z,100007.00
2023-04-08T11:58:04.331Z,100008.16
2023-04-08T12:00:33.155Z,100002.50
2023-04-08T12:03:00.937Z,100007.13
2023-04-08T12:05:28.444Z,100002.03
2023-04-08T12:07:56.503Z,100001.88
2023-04-08T12:10:25.288Z,99998.94
2023-04-08T12:12:52.843Z,100004.16
2023-04-08T12:15:20.909Z,100002.84
2023-04-08T12:17:48.832Z,100001.84
2023-04-08T12:20:17.357Z,100009.06
2023-04-08T12:22:44.802Z,100004.16
2023-04-08T12:25:12.469Z,100007.84
2023-04-08T12:27:39.852Z,99996.03
2023-04-08T12:30:07.936Z,99998.22
2023-04-08T12:32:35.637Z,100001.00
2023-04-08T12:35:03.104Z,100002.06
2023-04-08T12:37:30.849Z,100008.56
2023-04-08T12:39:58.555Z,100004.41
2023-04-08T12:42:26.532Z,100007.63
2023-04-08T12:44:54.022Z,100011.75
2023-04-08T12:47:22.252Z,100002.53
2023-04-08T12:49:51.102Z,100002.25
2023-04-08T12:52:18.843Z,99999.03
2023-04-08T12:54:46.568Z,100006.25
2023-04-08T12:57:14.070Z,99997.50
2023-04-08T12:59:41.705Z,100001.75
2023-04-08T13:02:09.415Z,100001.22
2023-04-08T13:04:36.789Z,99999.50
2023-04-08T13:07:05.071Z,99998.72
2023-04-08T13:09:32.827Z,100002.59
2023-04-08T13:12:00.255Z,99997.25
2023-04-08T13:14:27.676Z,100003.97
2023-04-08T13:16:55.502Z,99998.25
2023-04-08T13:19:22.945Z,100001.19
2023-04-08T13:21:50.364Z,99999.06
2023-04-08T13:24:18.242Z,99995.09
2023-04-08T13:26:46.116Z,99998.34
2023-04-08T13:29:13.545Z,99994.84
2023-04-08T13:31:41.482Z,99991.34
2023-04-08T13:34:08.965Z,99985.75
2023-04-08T13:36:36.860Z,99988.41
2023-04-08T13:39:04.633Z,99995.41
2023-04-08T13:41:32.045Z,99991.00
2023-04-08T13:43:59.444Z,99990.53
2023-04-08T13:46:27.320Z,99984.16
2023-04-08T13:48:54.871Z,99994.28
2023-04-08T13:51:22.346Z,99986.81
2023-04-08T13:53:50.031Z,99992.75
2023-04-08T13:56:17.419Z,99980.78
2023-04-08T13:58:49.668Z,99995.00
2023-04-08T14:01:20.265Z,99992.31
2023-04-08T14:03:49.948Z,99994.84
2023-04-08T14:06:17.407Z,99991.94
2023-04-08T14:08:44.850Z,99988.03
2023-04-08T14:11:12.801Z,99988.72
2023-04-08T14:13:40.435Z,99986.75
2023-04-08T14:16:07.885Z,99992.91
2023-04-08T14:18:35.626Z,99980.31
2023-04-08T14:21:03.749Z,99992.63
2023-04-08T14:23:31.188Z,99994.03
2023-04-08T14:25:58.894Z,99994.28
2023-04-08T14:28:28.451Z,99997.09
2023-04-08T14:30:56.177Z,99992.44
2023-04-08T14:33:24.002Z,99995.38
2023-04-08T14:35:53.011Z,99999.00
2023-04-08T14:38:21.426Z,99986.63
2023-04-08T14:40:49.348Z,99990.50
2023-04-08T14:43:16.776Z,99987.84
2023-04-08T14:45:45.072Z,99999.47
2023-04-08T14:48:12.946Z,99998.22
2023-04-08T14:50:40.346Z,99998.81
2023-04-08T14:53:07.831Z,100002.97
2023-04-08T14:55:35.497Z,100002.03
2023-04-08T14:58:03.015Z,99983.56
2023-04-08T15:00:30.451Z,99998.03
2023-04-08T15:02:58.942Z,99992.91
2023-04-08T15:05:26.627Z,99993.56
2023-04-08T15:07:54.225Z,99989.19
2023-04-08T15:10:21.854Z,99989.84
2023-04-08T15:12:49.229Z,100000.88
2023-04-08T15:15:16.707Z,99991.88
2023-04-08T15:17:44.450Z,99996.53
2023-04-08T15:20:12.204Z,99998.22
2023-04-08T15:22:39.813Z,99991.22
2023-04-08T15:25:07.954Z,99987.75
2023-04-08T15:27:36.383Z,100002.31
2023-04-08T15:30:10.690Z,100002.31
2023-04-08T15:32:41.729Z,99997.53
2023-04-08T15:35:09.963Z,99994.19
2023-04-08T15:37:37.415Z,99995.66
2023-04-08T15:40:05.645Z,99999.13
2023-04-08T15:42:33.200Z,100001.00
2023-04-08T15:45:00.594Z,100009.53
2023-04-08T15:47:28.468Z,100014.13
2023-04-08T15:49:56.164Z,100006.47
2023-04-08T15:52:23.600Z,100008.62
2023-04-08T15:54:51.356Z,100006.94
2023-04-08T15:57:18.741Z,100007.56
2023-04-08T15:59:46.134Z,100013.94
2023-04-08T16:02:13.947Z,100003.41
2023-04-08T16:04:42.813Z,100013.34
2023-04-08T16:07:10.420Z,100012.44
2023-04-08T16:09:37.849Z,100015.66
2023-04-08T16:12:05.557Z,100016.47
2023-04-08T16:14:33.025Z,100022.06
2023-04-08T16:17:00.379Z,100016.34
2023-04-08T16:19:28.331Z,100022.66
2023-04-08T16:21:55.978Z,100024.44
2023-04-08T16:24:23.408Z,100023.47
2023-04-08T16:26:51.214Z,100027.47
2023-04-08T16:29:18.701Z,100028.41
2023-04-08T16:31:46.109Z,100035.47
2023-04-08T16:34:13.824Z,100034.88
2023-04-08T16:36:41.240Z,100035.28
2023-04-08T16:39:08.678Z,100038.91
2023-04-08T16:41:36.755Z,100039.16
2023-04-08T16:44:04.162Z,100037.97
2023-04-08T16:46:31.541Z,100043.87
2023-04-08T16:48:59.192Z,100038.53
2023-04-08T16:51:26.736Z,100044.34
2023-04-08T16:53:56.298Z,100048.19
2023-04-08T16:56:26.153Z,100050.41
2023-04-08T16:58:53.656Z,100047.78
2023-04-08T17:01:21.121Z,100051.75
2023-04-08T17:03:50.305Z,100048.41
2023-04-08T17:06:18.335Z,100052.25
2023-04-08T17:08:46.053Z,100058.88
2023-04-08T17:11:15.054Z,100058.13
2023-04-08T17:13:43.523Z,100062.19
2023-04-08T17:16:16.222Z,100063.06
2023-04-08T17:18:45.128Z,100085.84
2023-04-08T17:21:14.080Z,100079.53
2023-04-08T17:23:41.691Z,100077.13
2023-04-08T17:26:10.066Z,100084.09
2023-04-08T17:28:38.016Z,100085.53
2023-04-08T17:31:05.435Z,100085.25
2023-04-08T17:33:34.068Z,100082.62
2023-04-08T17:36:01.584Z,100094.41
2023-04-08T17:38:29.107Z,100091.44
2023-04-08T17:40:56.801Z,100090.12
2023-04-08T17:43:24.254Z,100093.88
2023-04-08T17:45:51.997Z,100091.94
2023-04-08T17:48:20.003Z,100099.03
2023-04-08T17:50:47.613Z,100102.22
2023-04-08T17:53:15.618Z,100097.81
2023-04-08T17:55:43.294Z,100104.44
2023-04-08T17:58:10.704Z,100111.63
2023-04-08T18:00:38.124Z,100107.12
2023-04-08T18:03:06.039Z,100110.81
2023-04-08T18:05:33.569Z,100116.91
2023-04-08T18:08:01.013Z,100111.31
2023-04-08T18:10:28.835Z,100109.13
2023-04-08T18:13:10.285Z,100116.00
2023-04-08T18:15:38.898Z,100112.13
2023-04-08T18:18:06.329Z,100107.75
2023-04-08T18:20:37.150Z,100120.91
2023-04-08T18:23:05.069Z,100118.03
2023-04-08T18:25:32.696Z,100116.16
2023-04-08T18:28:00.273Z,100117.66
2023-04-08T18:30:28.020Z,100125.31
2023-04-08T18:32:55.643Z,100127.88
2023-04-08T18:35:24.474Z,100127.16
2023-04-08T18:37:52.211Z,100134.56
2023-04-08T18:40:20.256Z,100132.06
2023-04-08T18:42:47.637Z,100136.13
2023-04-08T18:45:15.442Z,100134.88
2023-04-08T18:47:42.902Z,100139.41
2023-04-08T18:50:10.803Z,100143.00
2023-04-08T18:52:39.020Z,100133.66
2023-04-08T18:55:06.579Z,100139.56
2023-04-08T18:57:34.546Z,100142.06
2023-04-08T19:00:02.273Z,100146.19
2023-04-08T19:02:29.739Z,100143.88
2023-04-08T19:04:58.131Z,100141.78
2023-04-08T19:07:26.356Z,100153.38
2023-04-08T19:09:59.992Z,100150.94
2023-04-08T19:12:27.823Z,100148.81
2023-04-08T19:14:55.228Z,100154.06
2023-04-08T19:17:22.620Z,100148.16
2023-04-08T19:19:50.376Z,100151.69
2023-04-08T19:22:17.856Z,100154.84
2023-04-08T19:24:45.249Z,100149.44
2023-04-08T19:27:14.434Z,100153.31
2023-04-08T19:29:41.906Z,100151.91
2023-04-08T19:32:09.616Z,100163.00
2023-04-08T19:34:38.533Z,100160.28
2023-04-08T19:37:07.205Z,100161.81
2023-04-08T19:39:34.877Z,100152.25
2023-04-08T19:42:02.605Z,100155.87
2023-04-08T19:44:29.991Z,100163.84
2023-04-08T19:46:57.910Z,100170.72
2023-04-08T19:49:25.643Z,100164.91
2023-04-08T19:51:53.103Z,100166.37
2023-04-08T19:54:20.540Z,100163.19
2023-04-08T19:56:48.415Z,100168.12
2023-04-08T19:59:16.269Z,100164.59
2023-04-08T20:01:43.890Z,100166.97
2023-04-08T20:04:11.819Z,100165.13
2023-04-08T20:06:39.309Z,100162.28
2023-04-08T20:09:06.949Z,100169.78
2023-04-08T20:11:34.731Z,100167.53
2023-04-08T20:14:03.657Z,100178.16
2023-04-08T20:16:31.972Z,100175.28
2023-04-08T20:18:59.826Z,100171.72
2023-04-08T20:21:27.848Z,100169.69
2023-04-08T20:23:55.732Z,100174.41
2023-04-08T20:26:23.468Z,100168.38
2023-04-08T20:28:50.942Z,100169.03
2023-04-08T20:31:19.313Z,100173.44
2023-04-08T20:33:47.032Z,100168.06
2023-04-08T20:36:14.479Z,100171.50
2023-04-08T20:38:42.493Z,100167.94
2023-04-08T20:41:10.540Z,100174.31
2023-04-08T20:43:39.435Z,100171.06
2023-04-08T20:46:07.527Z,100174.09
2023-04-08T20:48:36.109Z,100171.41
2023-04-08T20:51:03.560Z,100178.59
2023-04-08T20:53:31.469Z,100180.41
2023-04-08T20:55:59.191Z,100177.41
2023-04-08T20:58:26.835Z,100176.69
2023-04-08T21:00:54.377Z,100179.69
2023-04-08T21:03:22.387Z,100183.56
2023-04-08T21:05:50.221Z,100182.78
2023-04-08T21:08:17.860Z,100183.63
2023-04-08T21:10:45.535Z,100187.59
2023-04-08T21:13:13.014Z,100189.19
2023-04-08T21:15:40.509Z,100191.66
2023-04-08T21:18:11.087Z,100188.69
2023-04-08T21:20:41.414Z,100188.34
2023-04-08T21:23:09.113Z,100188.34
2023-04-08T21:25:36.515Z,100187.47
2023-04-08T21:28:03.917Z,100183.00
2023-04-08T21:30:31.555Z,100187.50
2023-04-08T21:32:58.931Z,100194.78
2023-04-08T21:35:26.531Z,100194.69
2023-04-08T21:37:54.158Z,100192.56
2023-04-08T21:40:21.686Z,100191.22
2023-04-08T21:42:49.132Z,100186.00
2023-04-08T21:45:17.025Z,100190.28
2023-04-08T21:47:44.585Z,100193.06
2023-04-08T21:50:12.022Z,100186.84
2023-04-08T21:52:41.577Z,100184.94
2023-04-08T21:55:10.483Z,100188.78
2023-04-08T21:57:37.953Z,100191.22
2023-04-08T22:00:13.200Z,100192.66
2023-04-08T22:02:42.997Z,100196.19
2023-04-08T22:05:11.523Z,100192.97
2023-04-08T22:07:38.998Z,100193.94
2023-04-08T22:10:07.416Z,100186.31
2023-04-08T22:12:35.122Z,100194.91
2023-04-08T22:15:03.033Z,100190.72
2023-04-08T22:17:30.463Z,100186.09
2023-04-08T22:19:58.131Z,100191.25
2023-04-08T22:22:25.504Z,100189.00
2023-04-08T22:24:52.902Z,100188.28
2023-04-08T22:27:20.545Z,100190.50
2023-04-08T22:29:47.958Z,100188.03
2023-04-08T22:32:15.563Z,100184.94
2023-04-08T22:34:43.282Z,100184.94
2023-04-08T22:37:10.762Z,100194.06
2023-04-08T22:39:38.134Z,100187.62
2023-04-08T22:42:05.813Z,100191.69
2023-04-08T22:44:33.342Z,100192.31
2023-04-08T22:47:00.743Z,100192.66
2023-04-08T22:49:28.419Z,100191.56
2023-04-08T22:51:55.844Z,100185.38
2023-04-08T22:54:23.255Z,100190.53
2023-04-08T22:56:51.060Z,100189.22
2023-04-08T22:59:18.452Z,100190.94
2023-04-08T23:01:46.153Z,100194.47
2023-04-08T23:04:13.909Z,100198.22
2023-04-08T23:06:41.349Z,100194.69
2023-04-08T23:09:08.743Z,100197.03
2023-04-08T23:11:36.378Z,100195.53
2023-04-08T23:14:03.822Z,100198.53
2023-04-08T23:16:31.640Z,100192.31
2023-04-08T23:18:59.310Z,100199.06
2023-04-08T23:21:27.085Z,100202.28
2023-04-08T23:23:54.581Z,100199.63
2023-04-08T23:26:22.382Z,100198.00
2023-04-08T23:28:49.965Z,100190.81
2023-04-08T23:31:17.607Z,100192.44
2023-04-08T23:33:45.549Z,100198.84
2023-04-08T23:36:13.119Z,100192.44
2023-04-08T23:38:40.748Z,100192.31
2023-04-08T23:41:08.415Z,100188.56
2023-04-08T23:43:36.453Z,100189.87
2023-04-08T23:46:03.917Z,100187.28
2023-04-08T23:48:31.577Z,100189.63
2023-04-08T23:50:58.941Z,100182.66
2023-04-08T23:53:26.336Z,100189.50
2023-04-08T23:55:54.028Z,100190.94
2023-04-08T23:58:21.496Z,100194.56
